SBI1008 ULLI-UUDD
Flight info
| Callsign | SBI1008 |
|---|---|
| Flight time | 1h 12m |
| Altitude | 29000 |
| Route | SUGIN T873 NIRGI T73 DESUD P164 IBOGI T287 ESOLO |
| Aircraft | B738/M-SDE2E3FGHIRWXY/LB1 |
Departure
| Time | 2026-05-05 15:10 |
|---|---|
| Airport | Pulkovo Airport (ULLI) |
Arrival
| Time | 2026-05-05 16:22 |
|---|---|
| Airport | Domodedovo International Airport (UUDD) |
| Time | Latitude | Longitude | Altitude | Speed | Heading |
|---|---|---|---|---|---|
| 2026-05-05 14:45 | 59.79822 | 30.26656 | 80 ft | 0 kts | 106° |
| 2026-05-05 14:54 | 59.79823 | 30.26646 | 85 ft | 2 kts | 106° |
| 2026-05-05 14:55 | 59.79827 | 30.26614 | 82 ft | 2 kts | 103° |
| 2026-05-05 14:55 | 59.79831 | 30.26582 | 85 ft | 2 kts | 97° |
| 2026-05-05 14:55 | 59.79831 | 30.26549 | 84 ft | 2 kts | 63° |
| 2026-05-05 14:55 | 59.79822 | 30.26532 | 85 ft | 1 kts | 17° |
| 2026-05-05 14:56 | 59.79821 | 30.26532 | 85 ft | 0 kts | 17° |
| 2026-05-05 15:01 | 59.79842 | 30.26545 | 84 ft | 6 kts | 17° |
| 2026-05-05 15:01 | 59.79886 | 30.26569 | 81 ft | 7 kts | 15° |
| 2026-05-05 15:02 | 59.79930 | 30.26593 | 69 ft | 7 kts | 15° |
| 2026-05-05 15:02 | 59.79975 | 30.26620 | 78 ft | 7 kts | 18° |
| 2026-05-05 15:02 | 59.80044 | 30.26662 | 71 ft | 14 kts | 16° |
| 2026-05-05 15:02 | 59.80142 | 30.26717 | 74 ft | 15 kts | 15° |
| 2026-05-05 15:03 | 59.80233 | 30.26767 | 75 ft | 12 kts | 16° |
| 2026-05-05 15:03 | 59.80315 | 30.26814 | 74 ft | 12 kts | 16° |
| 2026-05-05 15:03 | 59.80386 | 30.26888 | 72 ft | 12 kts | 64° |
| 2026-05-05 15:03 | 59.80372 | 30.27042 | 70 ft | 12 kts | 106° |
| 2026-05-05 15:04 | 59.80350 | 30.27194 | 74 ft | 11 kts | 106° |
| 2026-05-05 15:04 | 59.80329 | 30.27341 | 65 ft | 11 kts | 106° |
| 2026-05-05 15:04 | 59.80308 | 30.27484 | 70 ft | 11 kts | 107° |
| 2026-05-05 15:04 | 59.80287 | 30.27621 | 68 ft | 10 kts | 107° |
| 2026-05-05 15:05 | 59.80233 | 30.27976 | 71 ft | 15 kts | 107° |
| 2026-05-05 15:05 | 59.80202 | 30.28175 | 74 ft | 15 kts | 107° |
| 2026-05-05 15:05 | 59.80175 | 30.28365 | 74 ft | 14 kts | 105° |
| 2026-05-05 15:06 | 59.80162 | 30.28551 | 67 ft | 14 kts | 72° |
| 2026-05-05 15:06 | 59.80219 | 30.28693 | 71 ft | 11 kts | 49° |
| 2026-05-05 15:06 | 59.80223 | 30.28703 | 71 ft | 0 kts | 49° |
| 2026-05-05 15:07 | 59.80226 | 30.28709 | 71 ft | 1 kts | 49° |
| 2026-05-05 15:07 | 59.80230 | 30.28718 | 70 ft | 1 kts | 49° |
| 2026-05-05 15:07 | 59.80237 | 30.28734 | 68 ft | 3 kts | 49° |
| 2026-05-05 15:08 | 59.80252 | 30.28769 | 64 ft | 3 kts | 49° |
| 2026-05-05 15:08 | 59.80267 | 30.28803 | 75 ft | 3 kts | 49° |
| 2026-05-05 15:08 | 59.80282 | 30.28836 | 70 ft | 3 kts | 46° |
| 2026-05-05 15:08 | 59.80300 | 30.28858 | 74 ft | 3 kts | 22° |
| 2026-05-05 15:09 | 59.80337 | 30.28832 | 70 ft | 9 kts | 301° |
| 2026-05-05 15:09 | 59.80353 | 30.28718 | 75 ft | 8 kts | 285° |
| 2026-05-05 15:09 | 59.80370 | 30.28597 | 74 ft | 17 kts | 285° |
| 2026-05-05 15:09 | 59.80479 | 30.27833 | 66 ft | 100 kts | 286° |
| 2026-05-05 15:10 | 59.80748 | 30.26064 | 168 ft | 160 kts | 288° |
| 2026-05-05 15:10 | 59.81089 | 30.23856 | 874 ft | 175 kts | 288° |
| 2026-05-05 15:10 | 59.81447 | 30.21446 | 1481 ft | 184 kts | 285° |
| 2026-05-05 15:10 | 59.81808 | 30.18967 | 2040 ft | 189 kts | 285° |
| 2026-05-05 15:11 | 59.82174 | 30.16457 | 2599 ft | 189 kts | 285° |
| 2026-05-05 15:11 | 59.82544 | 30.13935 | 3128 ft | 189 kts | 283° |
| 2026-05-05 15:11 | 59.82914 | 30.11405 | 3659 ft | 192 kts | 282° |
| 2026-05-05 15:11 | 59.83290 | 30.08840 | 4205 ft | 200 kts | 281° |
| 2026-05-05 15:12 | 59.83688 | 30.06119 | 4739 ft | 209 kts | 280° |
| 2026-05-05 15:12 | 59.84094 | 30.03288 | 5290 ft | 216 kts | 277° |
| 2026-05-05 15:12 | 59.84034 | 30.00376 | 5835 ft | 212 kts | 249° |
| 2026-05-05 15:12 | 59.83283 | 29.97870 | 6378 ft | 213 kts | 228° |
| 2026-05-05 15:13 | 59.82061 | 29.96189 | 6901 ft | 218 kts | 207° |
| 2026-05-05 15:13 | 59.80608 | 29.95234 | 7434 ft | 221 kts | 202° |
| 2026-05-05 15:13 | 59.79106 | 29.94394 | 7989 ft | 226 kts | 202° |
| 2026-05-05 15:13 | 59.77572 | 29.93537 | 8546 ft | 232 kts | 202° |
| 2026-05-05 15:14 | 59.75969 | 29.92883 | 9081 ft | 245 kts | 188° |
| 2026-05-05 15:14 | 59.74262 | 29.93627 | 9640 ft | 267 kts | 164° |
| 2026-05-05 15:14 | 59.72705 | 29.96006 | 9723 ft | 302 kts | 134° |
| 2026-05-05 15:14 | 59.71825 | 29.99911 | 9757 ft | 320 kts | 111° |
| 2026-05-05 15:15 | 59.71275 | 30.04206 | 10140 ft | 325 kts | 110° |
| 2026-05-05 15:15 | 59.70686 | 30.08613 | 10648 ft | 336 kts | 111° |
| 2026-05-05 15:15 | 59.70041 | 30.13142 | 11144 ft | 346 kts | 111° |
| 2026-05-05 15:15 | 59.69511 | 30.17886 | 11621 ft | 362 kts | 98° |
| 2026-05-05 15:16 | 59.69446 | 30.22949 | 12151 ft | 373 kts | 94° |
| 2026-05-05 15:16 | 59.69417 | 30.28078 | 12653 ft | 381 kts | 94° |
| 2026-05-05 15:16 | 59.69349 | 30.33377 | 13180 ft | 389 kts | 96° |
| 2026-05-05 15:16 | 59.69025 | 30.38714 | 13670 ft | 392 kts | 105° |
| 2026-05-05 15:17 | 59.68443 | 30.44026 | 14141 ft | 397 kts | 108° |
| 2026-05-05 15:17 | 59.67790 | 30.49396 | 14618 ft | 404 kts | 108° |
| 2026-05-05 15:17 | 59.67143 | 30.54846 | 15079 ft | 410 kts | 107° |
| 2026-05-05 15:17 | 59.66529 | 30.60342 | 15559 ft | 415 kts | 107° |
| 2026-05-05 15:18 | 59.65920 | 30.65971 | 16046 ft | 420 kts | 106° |
| 2026-05-05 15:18 | 59.65324 | 30.71654 | 16535 ft | 424 kts | 105° |
| 2026-05-05 15:18 | 59.64810 | 30.77429 | 17039 ft | 429 kts | 103° |
| 2026-05-05 15:18 | 59.64338 | 30.83280 | 17557 ft | 432 kts | 103° |
| 2026-05-05 15:19 | 59.63876 | 30.89165 | 18061 ft | 435 kts | 103° |
| 2026-05-05 15:19 | 59.63405 | 30.95102 | 18511 ft | 437 kts | 103° |
| 2026-05-05 15:19 | 59.62923 | 31.01044 | 18963 ft | 439 kts | 103° |
| 2026-05-05 15:19 | 59.62435 | 31.06941 | 19415 ft | 441 kts | 103° |
| 2026-05-05 15:20 | 59.61932 | 31.12925 | 19890 ft | 442 kts | 103° |
| 2026-05-05 15:20 | 59.61421 | 31.18924 | 20358 ft | 443 kts | 103° |
| 2026-05-05 15:20 | 59.60906 | 31.24923 | 20840 ft | 444 kts | 103° |
| 2026-05-05 15:20 | 59.60386 | 31.30940 | 21250 ft | 447 kts | 103° |
| 2026-05-05 15:21 | 59.59857 | 31.37023 | 21592 ft | 451 kts | 103° |
| 2026-05-05 15:21 | 59.59321 | 31.43148 | 21937 ft | 454 kts | 103° |
| 2026-05-05 15:21 | 59.58777 | 31.49335 | 22282 ft | 457 kts | 103° |
| 2026-05-05 15:21 | 59.58229 | 31.55544 | 22645 ft | 460 kts | 103° |
| 2026-05-05 15:22 | 59.57677 | 31.61773 | 23002 ft | 462 kts | 103° |
| 2026-05-05 15:22 | 59.57124 | 31.67966 | 23348 ft | 464 kts | 103° |
| 2026-05-05 15:22 | 59.56561 | 31.74242 | 23648 ft | 466 kts | 103° |
| 2026-05-05 15:22 | 59.55993 | 31.80543 | 23953 ft | 467 kts | 103° |
| 2026-05-05 15:23 | 59.55421 | 31.86848 | 24245 ft | 468 kts | 103° |
| 2026-05-05 15:23 | 59.54845 | 31.93167 | 24563 ft | 469 kts | 103° |
| 2026-05-05 15:23 | 59.54265 | 31.99496 | 24877 ft | 469 kts | 103° |
| 2026-05-05 15:23 | 59.53654 | 32.05829 | 25193 ft | 468 kts | 108° |
| 2026-05-05 15:24 | 59.52463 | 32.11713 | 25487 ft | 459 kts | 125° |
| 2026-05-05 15:24 | 59.50547 | 32.16613 | 25819 ft | 447 kts | 140° |
| 2026-05-05 15:24 | 59.48340 | 32.20930 | 26163 ft | 445 kts | 142° |
| 2026-05-05 15:24 | 59.46113 | 32.25167 | 26492 ft | 445 kts | 142° |
| 2026-05-05 15:25 | 59.43913 | 32.29337 | 26815 ft | 445 kts | 142° |
| 2026-05-05 15:25 | 59.41692 | 32.33570 | 27150 ft | 444 kts | 141° |
| 2026-05-05 15:25 | 59.39481 | 32.37814 | 27489 ft | 444 kts | 141° |
| 2026-05-05 15:25 | 59.37282 | 32.42056 | 27829 ft | 443 kts | 141° |
| 2026-05-05 15:26 | 59.35083 | 32.46309 | 28181 ft | 443 kts | 141° |
| 2026-05-05 15:26 | 59.32894 | 32.50544 | 28525 ft | 442 kts | 141° |
| 2026-05-05 15:26 | 59.30703 | 32.54776 | 28733 ft | 444 kts | 141° |
| 2026-05-05 15:27 | 59.26251 | 32.63341 | 28714 ft | 452 kts | 141° |
| 2026-05-05 15:27 | 59.21723 | 32.72022 | 28726 ft | 459 kts | 141° |
| 2026-05-05 15:28 | 59.17153 | 32.80752 | 28727 ft | 465 kts | 141° |
| 2026-05-05 15:28 | 59.12490 | 32.89628 | 28728 ft | 470 kts | 141° |
| 2026-05-05 15:29 | 59.07780 | 32.98556 | 28728 ft | 474 kts | 141° |
| 2026-05-05 15:29 | 59.03026 | 33.07530 | 28733 ft | 478 kts | 141° |
| 2026-05-05 15:30 | 58.98266 | 33.16481 | 28739 ft | 480 kts | 141° |
| 2026-05-05 15:30 | 58.93451 | 33.25501 | 28739 ft | 482 kts | 141° |
| 2026-05-05 15:31 | 58.88615 | 33.34513 | 28740 ft | 482 kts | 141° |
| 2026-05-05 15:31 | 58.83776 | 33.43489 | 28741 ft | 482 kts | 141° |
| 2026-05-05 15:32 | 58.78963 | 33.52385 | 28741 ft | 481 kts | 141° |
| 2026-05-05 15:32 | 58.74124 | 33.61298 | 28747 ft | 481 kts | 142° |
| 2026-05-05 15:33 | 58.69278 | 33.70186 | 28754 ft | 481 kts | 142° |
| 2026-05-05 15:33 | 58.64418 | 33.79064 | 28764 ft | 482 kts | 142° |
| 2026-05-05 15:34 | 58.59544 | 33.87932 | 28751 ft | 483 kts | 142° |
| 2026-05-05 15:34 | 58.54662 | 33.96779 | 28771 ft | 483 kts | 142° |
| 2026-05-05 15:35 | 58.49793 | 34.05567 | 28765 ft | 484 kts | 142° |
| 2026-05-05 15:35 | 58.44877 | 34.14407 | 28760 ft | 485 kts | 142° |
| 2026-05-05 15:36 | 58.39939 | 34.23247 | 28767 ft | 486 kts | 142° |
| 2026-05-05 15:36 | 58.35000 | 34.32057 | 28761 ft | 487 kts | 142° |
| 2026-05-05 15:37 | 58.30884 | 34.39371 | 28758 ft | 487 kts | 142° |
| 2026-05-05 15:37 | 58.25914 | 34.48173 | 28763 ft | 487 kts | 142° |
| 2026-05-05 15:38 | 58.20971 | 34.56892 | 28768 ft | 488 kts | 142° |
| 2026-05-05 15:38 | 58.15880 | 34.65371 | 28765 ft | 486 kts | 146° |
| 2026-05-05 15:39 | 58.10647 | 34.73488 | 28769 ft | 486 kts | 146° |
| 2026-05-05 15:39 | 58.05408 | 34.81616 | 28770 ft | 487 kts | 146° |
| 2026-05-05 15:40 | 58.00182 | 34.89792 | 28768 ft | 488 kts | 146° |
| 2026-05-05 15:40 | 57.94984 | 34.97930 | 28769 ft | 489 kts | 146° |
| 2026-05-05 15:41 | 57.89737 | 35.06112 | 28771 ft | 489 kts | 146° |
| 2026-05-05 15:41 | 57.84485 | 35.14265 | 28773 ft | 490 kts | 146° |
| 2026-05-05 15:42 | 57.79216 | 35.22410 | 28768 ft | 491 kts | 146° |
| 2026-05-05 15:42 | 57.73945 | 35.30527 | 28763 ft | 491 kts | 146° |
| 2026-05-05 15:43 | 57.68660 | 35.38639 | 28773 ft | 491 kts | 146° |
| 2026-05-05 15:43 | 57.63431 | 35.46806 | 28765 ft | 495 kts | 140° |
| 2026-05-05 15:44 | 57.59243 | 35.57135 | 28785 ft | 505 kts | 121° |
| 2026-05-05 15:44 | 57.56600 | 35.69351 | 28780 ft | 509 kts | 111° |
| 2026-05-05 15:45 | 57.54259 | 35.81821 | 28777 ft | 510 kts | 111° |
| 2026-05-05 15:45 | 57.51825 | 35.94118 | 28777 ft | 509 kts | 112° |
| 2026-05-05 15:46 | 57.48849 | 36.05976 | 28777 ft | 503 kts | 127° |
| 2026-05-05 15:46 | 57.44340 | 36.15630 | 28767 ft | 492 kts | 145° |
| 2026-05-05 15:47 | 57.38977 | 36.23433 | 28772 ft | 490 kts | 147° |
| 2026-05-05 15:47 | 57.33590 | 36.31188 | 28773 ft | 490 kts | 147° |
| 2026-05-05 15:48 | 57.28231 | 36.38998 | 28779 ft | 490 kts | 147° |
| 2026-05-05 15:48 | 57.22882 | 36.46820 | 28778 ft | 490 kts | 147° |
| 2026-05-05 15:49 | 57.17524 | 36.54628 | 28782 ft | 490 kts | 147° |
| 2026-05-05 15:49 | 57.12193 | 36.62361 | 28788 ft | 491 kts | 147° |
| 2026-05-05 15:49 | 57.09500 | 36.66253 | 28669 ft | 493 kts | 147° |
| 2026-05-05 15:50 | 57.06790 | 36.70162 | 28287 ft | 495 kts | 147° |
| 2026-05-05 15:50 | 57.04091 | 36.74054 | 27931 ft | 492 kts | 147° |
| 2026-05-05 15:50 | 57.01398 | 36.77929 | 27582 ft | 492 kts | 147° |
| 2026-05-05 15:50 | 56.98695 | 36.81809 | 27242 ft | 493 kts | 147° |
| 2026-05-05 15:51 | 56.95984 | 36.85691 | 26900 ft | 494 kts | 147° |
| 2026-05-05 15:51 | 56.93306 | 36.89498 | 26566 ft | 494 kts | 147° |
| 2026-05-05 15:51 | 56.90548 | 36.93395 | 26226 ft | 494 kts | 147° |
| 2026-05-05 15:51 | 56.87865 | 36.97178 | 25904 ft | 494 kts | 147° |
| 2026-05-05 15:52 | 56.85141 | 37.01017 | 25577 ft | 494 kts | 147° |
| 2026-05-05 15:52 | 56.82407 | 37.04832 | 25264 ft | 492 kts | 149° |
| 2026-05-05 15:52 | 56.79483 | 37.07939 | 24926 ft | 482 kts | 160° |
| 2026-05-05 15:52 | 56.76427 | 37.10421 | 24623 ft | 478 kts | 162° |
| 2026-05-05 15:53 | 56.73372 | 37.12775 | 24305 ft | 476 kts | 163° |
| 2026-05-05 15:53 | 56.70332 | 37.15130 | 23996 ft | 474 kts | 162° |
| 2026-05-05 15:53 | 56.67312 | 37.17531 | 23692 ft | 471 kts | 162° |
| 2026-05-05 15:53 | 56.64321 | 37.19961 | 23384 ft | 469 kts | 161° |
| 2026-05-05 15:54 | 56.61349 | 37.22403 | 23027 ft | 467 kts | 161° |
| 2026-05-05 15:54 | 56.58403 | 37.24829 | 22661 ft | 464 kts | 161° |
| 2026-05-05 15:54 | 56.55509 | 37.27204 | 22317 ft | 461 kts | 161° |
| 2026-05-05 15:54 | 56.52589 | 37.29591 | 21968 ft | 458 kts | 161° |
| 2026-05-05 15:55 | 56.49697 | 37.31957 | 21623 ft | 454 kts | 161° |
| 2026-05-05 15:55 | 56.46823 | 37.34309 | 21279 ft | 451 kts | 161° |
| 2026-05-05 15:55 | 56.43971 | 37.36640 | 20943 ft | 448 kts | 161° |
| 2026-05-05 15:55 | 56.41132 | 37.38957 | 20615 ft | 445 kts | 161° |
| 2026-05-05 15:56 | 56.38320 | 37.41247 | 20285 ft | 442 kts | 161° |
| 2026-05-05 15:56 | 56.35527 | 37.43519 | 19954 ft | 435 kts | 161° |
| 2026-05-05 15:56 | 56.32850 | 37.45700 | 19630 ft | 419 kts | 161° |
| 2026-05-05 15:56 | 56.30236 | 37.47825 | 19291 ft | 404 kts | 161° |
| 2026-05-05 15:57 | 56.27717 | 37.49868 | 18974 ft | 391 kts | 161° |
| 2026-05-05 15:57 | 56.25278 | 37.51839 | 18651 ft | 379 kts | 161° |
| 2026-05-05 15:57 | 56.22897 | 37.53757 | 18333 ft | 369 kts | 161° |
| 2026-05-05 15:57 | 56.20584 | 37.55617 | 18015 ft | 361 kts | 161° |
| 2026-05-05 15:58 | 56.18312 | 37.57442 | 17658 ft | 355 kts | 161° |
| 2026-05-05 15:58 | 56.16076 | 37.59237 | 17307 ft | 351 kts | 161° |
| 2026-05-05 15:58 | 56.13842 | 37.61026 | 16976 ft | 352 kts | 161° |
| 2026-05-05 15:58 | 56.11590 | 37.62827 | 16641 ft | 355 kts | 161° |
| 2026-05-05 15:59 | 56.09346 | 37.64624 | 16299 ft | 352 kts | 161° |
| 2026-05-05 15:59 | 56.07138 | 37.66390 | 15967 ft | 350 kts | 161° |
| 2026-05-05 15:59 | 56.04923 | 37.68160 | 15647 ft | 348 kts | 161° |
| 2026-05-05 15:59 | 56.02717 | 37.69918 | 15318 ft | 346 kts | 161° |
| 2026-05-05 16:00 | 56.00510 | 37.71676 | 14996 ft | 345 kts | 161° |
| 2026-05-05 16:00 | 55.98318 | 37.73422 | 14863 ft | 346 kts | 161° |
| 2026-05-05 16:00 | 55.96121 | 37.75168 | 14823 ft | 344 kts | 161° |
| 2026-05-05 16:00 | 55.93949 | 37.76947 | 14813 ft | 345 kts | 156° |
| 2026-05-05 16:01 | 55.91938 | 37.79262 | 14833 ft | 351 kts | 149° |
| 2026-05-05 16:01 | 55.89970 | 37.81862 | 14824 ft | 351 kts | 148° |
| 2026-05-05 16:01 | 55.88008 | 37.84444 | 14795 ft | 350 kts | 150° |
| 2026-05-05 16:01 | 55.85846 | 37.86278 | 14557 ft | 340 kts | 172° |
| 2026-05-05 16:02 | 55.83535 | 37.86681 | 14362 ft | 329 kts | 184° |
| 2026-05-05 16:02 | 55.81250 | 37.86706 | 14149 ft | 327 kts | 185° |
| 2026-05-05 16:02 | 55.78987 | 37.86686 | 13924 ft | 321 kts | 185° |
| 2026-05-05 16:02 | 55.76790 | 37.86677 | 13701 ft | 311 kts | 185° |
| 2026-05-05 16:03 | 55.74685 | 37.86684 | 13461 ft | 302 kts | 185° |
| 2026-05-05 16:03 | 55.72608 | 37.86703 | 13227 ft | 293 kts | 185° |
| 2026-05-05 16:03 | 55.70619 | 37.86730 | 13017 ft | 278 kts | 185° |
| 2026-05-05 16:03 | 55.68707 | 37.86758 | 12760 ft | 272 kts | 185° |
| 2026-05-05 16:04 | 55.66818 | 37.86786 | 12524 ft | 270 kts | 185° |
| 2026-05-05 16:04 | 55.64936 | 37.86811 | 12286 ft | 270 kts | 185° |
| 2026-05-05 16:04 | 55.63086 | 37.86850 | 12060 ft | 269 kts | 185° |
| 2026-05-05 16:04 | 55.61210 | 37.86897 | 11835 ft | 269 kts | 185° |
| 2026-05-05 16:05 | 55.59338 | 37.86944 | 11598 ft | 269 kts | 185° |
| 2026-05-05 16:05 | 55.57465 | 37.86990 | 11375 ft | 268 kts | 185° |
| 2026-05-05 16:05 | 55.55594 | 37.87156 | 11135 ft | 273 kts | 173° |
| 2026-05-05 16:05 | 55.53827 | 37.88528 | 10911 ft | 282 kts | 150° |
| 2026-05-05 16:06 | 55.52269 | 37.90578 | 10711 ft | 283 kts | 147° |
| 2026-05-05 16:06 | 55.50707 | 37.92690 | 10486 ft | 282 kts | 147° |
| 2026-05-05 16:06 | 55.49143 | 37.94786 | 10274 ft | 282 kts | 147° |
| 2026-05-05 16:06 | 55.47572 | 37.96854 | 10054 ft | 281 kts | 148° |
| 2026-05-05 16:07 | 55.46000 | 37.98894 | 9831 ft | 280 kts | 148° |
| 2026-05-05 16:07 | 55.44430 | 38.00925 | 9619 ft | 279 kts | 148° |
| 2026-05-05 16:07 | 55.42869 | 38.02941 | 9364 ft | 277 kts | 148° |
| 2026-05-05 16:07 | 55.41320 | 38.04940 | 9129 ft | 275 kts | 148° |
| 2026-05-05 16:08 | 55.39776 | 38.06928 | 8910 ft | 274 kts | 148° |
| 2026-05-05 16:08 | 55.38240 | 38.08906 | 8673 ft | 273 kts | 148° |
| 2026-05-05 16:08 | 55.36712 | 38.10872 | 8428 ft | 271 kts | 148° |
| 2026-05-05 16:08 | 55.35211 | 38.12803 | 8208 ft | 270 kts | 148° |
| 2026-05-05 16:09 | 55.33700 | 38.14743 | 7975 ft | 268 kts | 148° |
| 2026-05-05 16:09 | 55.32202 | 38.16668 | 7741 ft | 261 kts | 148° |
| 2026-05-05 16:09 | 55.30765 | 38.18516 | 7504 ft | 250 kts | 148° |
| 2026-05-05 16:09 | 55.29387 | 38.20283 | 7268 ft | 241 kts | 148° |
| 2026-05-05 16:10 | 55.28041 | 38.22005 | 7038 ft | 237 kts | 148° |
| 2026-05-05 16:10 | 55.26726 | 38.23683 | 6843 ft | 236 kts | 148° |
| 2026-05-05 16:10 | 55.25397 | 38.25361 | 6635 ft | 234 kts | 149° |
| 2026-05-05 16:10 | 55.24060 | 38.26978 | 6421 ft | 233 kts | 149° |
| 2026-05-05 16:11 | 55.22725 | 38.28580 | 6193 ft | 232 kts | 149° |
| 2026-05-05 16:11 | 55.18560 | 38.32564 | 5498 ft | 227 kts | 185° |
| 2026-05-05 16:12 | 55.17028 | 38.32068 | 5306 ft | 223 kts | 200° |
| 2026-05-05 16:12 | 55.14076 | 38.30346 | 4870 ft | 225 kts | 201° |
| 2026-05-05 16:13 | 55.10651 | 38.26006 | 4173 ft | 195 kts | 255° |
| 2026-05-05 16:13 | 55.10547 | 38.23729 | 3944 ft | 185 kts | 277° |
| 2026-05-05 16:13 | 55.10828 | 38.21571 | 3742 ft | 181 kts | 284° |
| 2026-05-05 16:14 | 55.11501 | 38.17341 | 3298 ft | 182 kts | 284° |
| 2026-05-05 16:14 | 55.12396 | 38.13208 | 3017 ft | 185 kts | 312° |
| 2026-05-05 16:15 | 55.14758 | 38.11719 | 3014 ft | 175 kts | 346° |
| 2026-05-05 16:15 | 55.17061 | 38.10960 | 3013 ft | 169 kts | 346° |
| 2026-05-05 16:16 | 55.19373 | 38.10217 | 2998 ft | 167 kts | 346° |
| 2026-05-05 16:16 | 55.21636 | 38.09494 | 2993 ft | 165 kts | 347° |
| 2026-05-05 16:17 | 55.23873 | 38.08655 | 2993 ft | 166 kts | 332° |
| 2026-05-05 16:17 | 55.24897 | 38.07690 | 3008 ft | 165 kts | 329° |
| 2026-05-05 16:18 | 55.26756 | 38.05702 | 2996 ft | 156 kts | 323° |
| 2026-05-05 16:18 | 55.27650 | 38.04649 | 2995 ft | 153 kts | 323° |
| 2026-05-05 16:18 | 55.29422 | 38.02518 | 2872 ft | 156 kts | 323° |
| 2026-05-05 16:19 | 55.30313 | 38.01442 | 2674 ft | 154 kts | 323° |
| 2026-05-05 16:19 | 55.31184 | 38.00389 | 2478 ft | 153 kts | 323° |
| 2026-05-05 16:19 | 55.32942 | 37.98265 | 2078 ft | 153 kts | 323° |
| 2026-05-05 16:20 | 55.34697 | 37.96147 | 1675 ft | 152 kts | 323° |
| 2026-05-05 16:20 | 55.36435 | 37.94048 | 1278 ft | 150 kts | 324° |
| 2026-05-05 16:21 | 55.38200 | 37.91919 | 889 ft | 155 kts | 325° |
| 2026-05-05 16:22 | 55.40617 | 37.89007 | 569 ft | 99 kts | 327° |
| 2026-05-05 16:22 | 55.41132 | 37.88407 | 579 ft | 13 kts | 342° |
| 2026-05-05 16:23 | 55.41276 | 37.88353 | 581 ft | 7 kts | 355° |
| 2026-05-05 16:23 | 55.41323 | 37.88347 | 582 ft | 7 kts | 355° |
| 2026-05-05 16:23 | 55.41374 | 37.88461 | 579 ft | 11 kts | 124° |
| 2026-05-05 16:24 | 55.41315 | 37.88538 | 580 ft | 10 kts | 146° |
| 2026-05-05 16:24 | 55.41255 | 37.88609 | 578 ft | 10 kts | 146° |
| 2026-05-05 16:24 | 55.41143 | 37.88745 | 578 ft | 10 kts | 146° |
| 2026-05-05 16:25 | 55.41088 | 37.88810 | 576 ft | 9 kts | 146° |
| 2026-05-05 16:25 | 55.40984 | 37.88936 | 575 ft | 9 kts | 145° |
| 2026-05-05 16:25 | 55.40934 | 37.88997 | 575 ft | 9 kts | 145° |
| 2026-05-05 16:26 | 55.40840 | 37.89108 | 572 ft | 11 kts | 147° |
| 2026-05-05 16:26 | 55.40792 | 37.89382 | 572 ft | 11 kts | 65° |
| 2026-05-05 16:27 | 55.40819 | 37.89457 | 569 ft | 9 kts | 54° |
| 2026-05-05 16:27 | 55.40870 | 37.89513 | 576 ft | 9 kts | 355° |
| 2026-05-05 16:27 | 55.40924 | 37.89460 | 572 ft | 9 kts | 323° |
| 2026-05-05 16:27 | 55.40977 | 37.89414 | 578 ft | 9 kts | 11° |
| 2026-05-05 16:28 | 55.40999 | 37.89497 | 576 ft | 7 kts | 70° |
| 2026-05-05 16:28 | 55.41012 | 37.89533 | 577 ft | 0 kts | 55° |